createdAt,value
2017-03-20T00:00:08.675Z,12.87
2017-03-20T00:00:49.184Z,13.15
2017-03-20T00:01:29.698Z,13.34
2017-03-20T00:02:10.244Z,13.63
2017-03-20T00:02:50.746Z,13.44
2017-03-20T00:03:31.259Z,13.06
2017-03-20T00:04:11.773Z,12.68
2017-03-20T00:04:52.289Z,12.87
2017-03-20T00:05:32.801Z,12.58
2017-03-20T00:06:13.306Z,13.06
2017-03-20T00:06:53.826Z,13.15
2017-03-20T00:07:34.328Z,13.34
2017-03-20T00:08:14.849Z,13.63
2017-03-20T00:08:55.358Z,13.72
2017-03-20T00:09:35.858Z,13.44
2017-03-20T00:10:16.354Z,13.44
2017-03-20T00:10:56.866Z,12.77
2017-03-20T00:11:37.386Z,13.06
2017-03-20T00:12:17.882Z,12.58
2017-03-20T00:12:58.405Z,13.15
2017-03-20T00:13:38.917Z,13.72
2017-03-20T00:14:19.435Z,12.48
2017-03-20T00:14:59.995Z,12.96
2017-03-20T00:15:42.459Z,12.96
2017-03-20T00:16:22.974Z,12.96
2017-03-20T00:17:03.479Z,12.96
2017-03-20T00:17:43.978Z,13.44
2017-03-20T00:18:24.494Z,13.44
2017-03-20T00:19:04.999Z,13.15
2017-03-20T00:19:45.513Z,13.06
2017-03-20T00:20:26.047Z,13.06
2017-03-20T00:21:06.531Z,12.96
2017-03-20T00:21:47.045Z,13.34
2017-03-20T00:22:27.568Z,13.92
2017-03-20T00:23:08.081Z,13.82
2017-03-20T00:23:48.601Z,13.72
2017-03-20T00:24:29.122Z,13.92
2017-03-20T00:25:09.619Z,13.34
2017-03-20T00:25:50.140Z,13.63
2017-03-20T00:26:30.641Z,13.72
2017-03-20T00:27:11.162Z,13.63
2017-03-20T00:27:51.661Z,13.34
2017-03-20T00:28:32.163Z,13.34
2017-03-20T00:29:12.670Z,12.96
2017-03-20T00:29:53.171Z,12.96
2017-03-20T00:30:33.682Z,12.96
2017-03-20T00:31:14.179Z,13.34
2017-03-20T00:31:54.702Z,13.53
2017-03-20T00:32:35.223Z,13.44
2017-03-20T00:33:15.725Z,12.96
2017-03-20T00:33:56.233Z,12.96
2017-03-20T00:34:36.744Z,13.06
2017-03-20T00:35:17.240Z,13.44
2017-03-20T00:35:57.746Z,12.48
2017-03-20T00:36:38.253Z,12.87
2017-03-20T00:37:18.822Z,12.96
2017-03-20T00:37:59.301Z,13.34
2017-03-20T00:38:39.819Z,13.34
2017-03-20T00:39:20.356Z,13.06
2017-03-20T00:40:00.867Z,13.44
2017-03-20T00:40:41.356Z,13.72
2017-03-20T00:41:21.865Z,13.63
2017-03-20T00:42:02.365Z,13.72
2017-03-20T00:42:42.885Z,13.44
2017-03-20T00:43:23.365Z,13.63
2017-03-20T00:44:03.854Z,13.72
2017-03-20T00:44:44.373Z,13.72
2017-03-20T00:45:24.868Z,13.82
2017-03-20T00:46:05.363Z,13.06
2017-03-20T00:46:45.879Z,12.87
2017-03-20T00:47:26.396Z,12.96
2017-03-20T00:48:06.899Z,12.96
2017-03-20T00:48:47.402Z,12.77
2017-03-20T00:49:27.918Z,12.77
2017-03-20T00:50:08.446Z,13.24
2017-03-20T00:50:48.965Z,13.44
2017-03-20T00:51:29.460Z,13.15
2017-03-20T00:52:09.975Z,13.06
2017-03-20T00:52:50.470Z,12.96
2017-03-20T00:53:30.983Z,12.87
2017-03-20T00:54:11.482Z,12.77
2017-03-20T00:54:51.983Z,13.44
2017-03-20T00:55:32.494Z,13.63
2017-03-20T00:56:13.011Z,13.06
2017-03-20T00:56:55.255Z,12.87
2017-03-20T00:57:35.773Z,12.96
2017-03-20T00:58:16.286Z,12.96
2017-03-20T00:58:56.785Z,12.96
2017-03-20T00:59:37.306Z,12.96
2017-03-20T01:00:17.813Z,12.96
2017-03-20T01:00:58.310Z,12.87
2017-03-20T01:01:38.826Z,12.96
2017-03-20T01:02:19.327Z,12.77
2017-03-20T01:02:59.861Z,12.87
2017-03-20T01:03:40.398Z,12.87
2017-03-20T01:04:20.930Z,12.87
2017-03-20T01:05:01.436Z,13.15
2017-03-20T01:05:41.928Z,12.77
2017-03-20T01:06:22.459Z,12.96
2017-03-20T01:07:03.128Z,13.06
2017-03-20T01:07:43.635Z,12.87
2017-03-20T01:08:24.129Z,12.87
2017-03-20T01:09:04.634Z,13.92
2017-03-20T01:09:45.160Z,13.72
2017-03-20T01:10:25.675Z,12.77
2017-03-20T01:11:06.173Z,12.68
2017-03-20T01:11:46.670Z,12.96
2017-03-20T01:12:27.193Z,13.15
2017-03-20T01:13:07.709Z,13.44
2017-03-20T01:13:48.214Z,12.87
2017-03-20T01:14:28.715Z,12.87
2017-03-20T01:15:09.220Z,12.87
2017-03-20T01:15:49.751Z,13.24
2017-03-20T01:16:30.228Z,13.44
2017-03-20T01:17:10.746Z,13.53
2017-03-20T01:17:51.270Z,13.06
2017-03-20T01:18:31.782Z,13.44
2017-03-20T01:19:12.309Z,13.72
2017-03-20T01:19:52.810Z,13.63
2017-03-20T01:20:33.321Z,12.96
2017-03-20T01:21:13.822Z,12.87
2017-03-20T01:21:54.361Z,12.87
2017-03-20T01:22:34.858Z,12.58
2017-03-20T01:23:15.365Z,12.96
2017-03-20T01:23:55.867Z,13.15
2017-03-20T01:24:36.375Z,13.34
2017-03-20T01:25:16.897Z,13.72
2017-03-20T01:25:57.421Z,13.92
2017-03-20T01:26:37.906Z,12.96
2017-03-20T01:27:18.474Z,12.68
2017-03-20T01:27:58.997Z,12.58
2017-03-20T01:28:39.515Z,13.72
2017-03-20T01:29:20.021Z,12.77
2017-03-20T01:30:00.529Z,12.96
2017-03-20T01:30:41.047Z,12.58
2017-03-20T01:31:21.568Z,12.87
2017-03-20T01:32:02.083Z,13.06
2017-03-20T01:32:42.578Z,12.96
2017-03-20T01:33:23.093Z,14.11
2017-03-20T01:34:03.606Z,12.58
2017-03-20T01:34:44.112Z,12.77
2017-03-20T01:35:24.637Z,13.82
2017-03-20T01:36:05.139Z,14.58
2017-03-20T01:36:45.667Z,12.48
2017-03-20T01:37:26.181Z,12.48
2017-03-20T01:38:06.693Z,12.87
2017-03-20T01:38:47.208Z,13.34
2017-03-20T01:39:27.718Z,13.44
2017-03-20T01:40:08.219Z,13.34
2017-03-20T01:40:48.738Z,12.58
2017-03-20T01:41:29.261Z,13.63
2017-03-20T01:42:09.789Z,13.92
2017-03-20T01:42:50.297Z,12.58
2017-03-20T01:43:30.811Z,12.96
2017-03-20T01:44:11.334Z,12.87
2017-03-20T01:44:51.820Z,13.15
2017-03-20T01:45:32.349Z,13.44
2017-03-20T01:46:12.865Z,12.87
2017-03-20T01:46:53.399Z,12.58
2017-03-20T01:47:33.916Z,12.87
2017-03-20T01:48:14.442Z,12.77
2017-03-20T01:48:54.975Z,13.44
2017-03-20T01:49:35.487Z,13.15
2017-03-20T01:50:16.014Z,12.96
2017-03-20T01:50:56.516Z,12.58
2017-03-20T01:51:37.056Z,12.68
2017-03-20T01:52:17.612Z,12.87
2017-03-20T01:52:58.080Z,12.77
2017-03-20T01:53:38.580Z,12.77
2017-03-20T01:54:19.071Z,12.96
2017-03-20T01:54:59.585Z,12.96
2017-03-20T01:55:40.079Z,13.06
2017-03-20T01:56:20.588Z,12.96
2017-03-20T01:57:01.092Z,12.68
2017-03-20T01:57:41.609Z,12.87
2017-03-20T01:58:22.119Z,12.68
2017-03-20T01:59:02.646Z,13.06
2017-03-20T01:59:43.146Z,13.15
2017-03-20T02:00:23.647Z,12.77
2017-03-20T02:01:04.218Z,12.68
2017-03-20T02:01:44.714Z,13.53
2017-03-20T02:02:25.209Z,12.77
2017-03-20T02:03:05.721Z,12.68
2017-03-20T02:03:46.244Z,12.87
2017-03-20T02:04:26.753Z,12.87
2017-03-20T02:05:07.266Z,12.48
2017-03-20T02:05:47.777Z,12.58
2017-03-20T02:06:28.304Z,12.48
2017-03-20T02:07:08.803Z,12.68
2017-03-20T02:07:49.322Z,12.68
2017-03-20T02:08:29.869Z,12.87
2017-03-20T02:09:10.339Z,12.48
2017-03-20T02:09:50.877Z,13.06
2017-03-20T02:10:31.381Z,12.68
2017-03-20T02:11:11.907Z,12.48
2017-03-20T02:11:52.425Z,12.48
2017-03-20T02:12:32.955Z,12.87
2017-03-20T02:13:13.503Z,12.87
2017-03-20T02:13:54.001Z,12.96
2017-03-20T02:14:34.522Z,12.77
2017-03-20T02:15:15.025Z,13.53
2017-03-20T02:15:55.528Z,14.01
2017-03-20T02:16:36.053Z,12.77
2017-03-20T02:17:16.579Z,12.68
2017-03-20T02:17:57.079Z,12.68
2017-03-20T02:18:37.594Z,12.58
2017-03-20T02:19:18.104Z,12.29
2017-03-20T02:19:58.610Z,12.48
2017-03-20T02:20:39.125Z,12.58
2017-03-20T02:21:19.622Z,12.87
2017-03-20T02:22:00.157Z,12.39
2017-03-20T02:22:40.670Z,12.48
2017-03-20T02:23:21.186Z,12.48
2017-03-20T02:24:01.700Z,12.68
2017-03-20T02:24:42.204Z,12.77
2017-03-20T02:25:22.712Z,12.96
2017-03-20T02:26:03.227Z,12.29
2017-03-20T02:26:43.749Z,12.39
2017-03-20T02:27:24.278Z,12.48
2017-03-20T02:28:04.782Z,12.58
2017-03-20T02:28:45.310Z,12.87
2017-03-20T02:29:25.839Z,12.87
2017-03-20T02:30:06.364Z,12.58
2017-03-20T02:30:46.894Z,12.87
2017-03-20T02:31:27.397Z,12.58
2017-03-20T02:32:09.680Z,12.29
2017-03-20T02:32:50.174Z,12.48
2017-03-20T02:33:30.688Z,12.39
2017-03-20T02:34:11.190Z,12.1
2017-03-20T02:34:51.697Z,12.29
2017-03-20T02:35:32.218Z,12.2
2017-03-20T02:36:12.748Z,12.29
2017-03-20T02:36:53.269Z,13.82
2017-03-20T02:37:33.764Z,12.87
2017-03-20T02:38:14.291Z,11.91
2017-03-20T02:38:54.787Z,12.1
2017-03-20T02:39:35.308Z,12.1
2017-03-20T02:40:15.797Z,12.01
2017-03-20T02:40:56.318Z,12.29
2017-03-20T02:41:36.843Z,13.53
2017-03-20T02:42:17.345Z,12.39
2017-03-20T02:42:57.877Z,12.96
2017-03-20T02:43:38.375Z,11.91
2017-03-20T02:44:18.879Z,11.82
2017-03-20T02:44:59.419Z,12.1
2017-03-20T02:45:39.921Z,12.2
2017-03-20T02:46:20.451Z,11.82
2017-03-20T02:47:00.925Z,12.01
2017-03-20T02:47:41.424Z,12.39
2017-03-20T02:48:21.933Z,12.29
2017-03-20T02:49:02.460Z,14.21
2017-03-20T02:49:42.962Z,12.39
2017-03-20T02:50:23.497Z,12.48
2017-03-20T02:51:03.998Z,11.91
2017-03-20T02:51:44.506Z,11.82
2017-03-20T02:52:25.017Z,11.82
2017-03-20T02:53:05.533Z,11.82
2017-03-20T02:53:46.070Z,11.82
2017-03-20T02:54:26.601Z,12.1
2017-03-20T02:55:07.109Z,12.29
2017-03-20T02:55:47.617Z,12.39
2017-03-20T02:56:28.154Z,12.29
2017-03-20T02:57:08.684Z,11.91
2017-03-20T02:57:49.174Z,12.1
2017-03-20T02:58:29.692Z,12.48
2017-03-20T02:59:10.197Z,12.1
2017-03-20T02:59:50.692Z,12.29
2017-03-20T03:00:31.208Z,11.82
2017-03-20T03:01:11.698Z,12.2
2017-03-20T03:01:52.200Z,12.01
2017-03-20T03:02:32.698Z,12.48
2017-03-20T03:03:13.179Z,12.48
2017-03-20T03:03:53.696Z,12.29
2017-03-20T03:04:34.239Z,12.48
2017-03-20T03:05:14.723Z,12.58
2017-03-20T03:05:55.244Z,12.77
2017-03-20T03:06:35.764Z,12.96
2017-03-20T03:07:16.271Z,12.96
2017-03-20T03:07:56.780Z,13.06
2017-03-20T03:08:37.302Z,12.77
2017-03-20T03:09:17.831Z,12.96
2017-03-20T03:09:58.346Z,12.87
2017-03-20T03:10:38.863Z,12.87
2017-03-20T03:11:19.372Z,13.06
2017-03-20T03:11:59.891Z,13.53
2017-03-20T03:12:40.415Z,13.63
2017-03-20T03:13:20.928Z,13.72
2017-03-20T03:14:01.449Z,13.44
2017-03-20T03:14:41.979Z,13.63
2017-03-20T03:15:22.465Z,13.72
2017-03-20T03:16:02.983Z,13.63
2017-03-20T03:16:43.480Z,12.87
2017-03-20T03:17:23.990Z,12.48
2017-03-20T03:18:04.517Z,12.48
2017-03-20T03:18:45.024Z,11.91
2017-03-20T03:19:25.547Z,11.82
2017-03-20T03:20:06.109Z,12.39
2017-03-20T03:20:46.611Z,12.48
2017-03-20T03:21:27.120Z,12.77
2017-03-20T03:22:07.640Z,12.87
2017-03-20T03:22:48.156Z,12.96
2017-03-20T03:23:28.663Z,13.06
2017-03-20T03:24:09.174Z,13.15
2017-03-20T03:24:49.698Z,13.44
2017-03-20T03:25:30.189Z,13.44
2017-03-20T03:26:10.710Z,12.96
2017-03-20T03:26:51.206Z,12.96
2017-03-20T03:27:31.725Z,12.87
2017-03-20T03:28:12.217Z,12.87
2017-03-20T03:28:52.712Z,13.15
2017-03-20T03:29:33.216Z,12.68
2017-03-20T03:30:13.713Z,12.2
2017-03-20T03:30:54.251Z,11.63
2017-03-20T03:31:34.769Z,11.82
2017-03-20T03:32:15.302Z,12.29
2017-03-20T03:32:55.820Z,12.29
2017-03-20T03:33:36.321Z,12.29
2017-03-20T03:34:16.821Z,12.48
2017-03-20T03:34:57.349Z,12.48
2017-03-20T03:35:37.849Z,12.68
2017-03-20T03:36:18.369Z,12.68
2017-03-20T03:36:58.905Z,12.96
2017-03-20T03:37:39.408Z,13.15
2017-03-20T03:38:19.926Z,13.15
2017-03-20T03:39:00.453Z,12.96
2017-03-20T03:39:40.946Z,12.58
2017-03-20T03:40:21.473Z,12.96
2017-03-20T03:41:01.983Z,12.96
2017-03-20T03:41:42.505Z,12.87
2017-03-20T03:42:23.005Z,12.96
2017-03-20T03:43:03.540Z,12.96
2017-03-20T03:43:44.058Z,12.87
2017-03-20T03:44:24.573Z,12.77
2017-03-20T03:45:05.091Z,12.87
2017-03-20T03:45:45.602Z,12.96
2017-03-20T03:46:26.106Z,12.87
2017-03-20T03:47:06.624Z,12.96
2017-03-20T03:47:47.121Z,13.34
2017-03-20T03:48:27.654Z,13.44
2017-03-20T03:49:08.163Z,13.63
2017-03-20T03:49:48.677Z,13.63
2017-03-20T03:50:29.195Z,13.63
2017-03-20T03:51:09.720Z,13.53
2017-03-20T03:51:50.221Z,12.77
2017-03-20T03:52:30.699Z,12.1
2017-03-20T03:53:11.234Z,11.91
2017-03-20T03:53:51.746Z,12.29
2017-03-20T03:54:32.243Z,12.29
2017-03-20T03:55:12.749Z,11.24
2017-03-20T03:55:53.254Z,12.2
2017-03-20T03:56:33.753Z,12.48
2017-03-20T03:57:14.259Z,11.91
2017-03-20T03:57:54.794Z,11.63
2017-03-20T03:58:35.310Z,11.91
2017-03-20T03:59:15.812Z,11.82
2017-03-20T03:59:56.317Z,11.63
2017-03-20T04:00:36.842Z,11.82
2017-03-20T04:01:17.346Z,11.72
2017-03-20T04:01:57.873Z,11.91
2017-03-20T04:02:38.381Z,11.82
2017-03-20T04:03:18.893Z,12.01
2017-03-20T04:03:59.418Z,11.82
2017-03-20T04:04:39.922Z,12.48
2017-03-20T04:05:20.420Z,12.48
2017-03-20T04:06:00.948Z,12.87
2017-03-20T04:06:41.491Z,12.48
2017-03-20T04:07:21.994Z,12.87
2017-03-20T04:08:02.529Z,11.72
2017-03-20T04:08:43.049Z,11.82
2017-03-20T04:09:23.567Z,12.39
2017-03-20T04:10:04.078Z,11.82
2017-03-20T04:10:44.597Z,11.91
2017-03-20T04:11:25.141Z,12.29
2017-03-20T04:12:05.663Z,12.29
2017-03-20T04:12:46.151Z,12.58
2017-03-20T04:13:26.693Z,12.48
2017-03-20T04:14:07.197Z,12.77
2017-03-20T04:14:47.717Z,12.39
2017-03-20T04:15:28.221Z,12.87
2017-03-20T04:16:08.736Z,12.87
2017-03-20T04:16:49.247Z,12.96
2017-03-20T04:17:29.767Z,12.2
2017-03-20T04:18:10.289Z,12.29
2017-03-20T04:18:50.810Z,12.39
2017-03-20T04:19:31.343Z,12.48
2017-03-20T04:20:11.862Z,12.48
2017-03-20T04:20:52.394Z,12.87
2017-03-20T04:21:32.897Z,11.72
2017-03-20T04:22:13.416Z,12.1
2017-03-20T04:22:53.926Z,12.39
2017-03-20T04:23:34.432Z,12.87
2017-03-20T04:24:14.948Z,12.87
2017-03-20T04:24:55.459Z,12.87
2017-03-20T04:25:35.965Z,13.06
2017-03-20T04:26:16.493Z,12.77
2017-03-20T04:26:57.006Z,13.15
2017-03-20T04:27:37.531Z,13.34
2017-03-20T04:28:18.054Z,13.44
2017-03-20T04:28:58.558Z,13.72
2017-03-20T04:29:39.093Z,13.63
2017-03-20T04:30:19.611Z,13.72
2017-03-20T04:31:00.138Z,13.24
2017-03-20T04:31:40.665Z,12.87
2017-03-20T04:32:21.173Z,13.15
2017-03-20T04:33:01.687Z,13.53
2017-03-20T04:33:42.216Z,13.72
2017-03-20T04:34:22.710Z,13.72
2017-03-20T04:35:03.237Z,13.92
2017-03-20T04:35:43.775Z,14.01
2017-03-20T04:36:24.298Z,14.11
2017-03-20T04:37:04.824Z,14.01
2017-03-20T04:37:45.351Z,14.29
2017-03-20T04:38:25.868Z,14.2
2017-03-20T04:39:06.382Z,14.39
2017-03-20T04:39:46.898Z,14.29
2017-03-20T04:40:27.419Z,14.11
2017-03-20T04:41:07.945Z,14.01
2017-03-20T04:41:48.469Z,14.48
2017-03-20T04:42:29.005Z,14.68
2017-03-20T04:43:09.511Z,14.68
2017-03-20T04:43:50.013Z,14.68
2017-03-20T04:44:30.521Z,14.48
2017-03-20T04:45:11.028Z,14.77
2017-03-20T04:45:51.533Z,14.96
2017-03-20T04:46:32.050Z,15.06
2017-03-20T04:47:12.571Z,14.87
2017-03-20T04:47:53.106Z,14.96
2017-03-20T04:48:33.660Z,14.87
2017-03-20T04:49:14.165Z,14.58
2017-03-20T04:49:54.657Z,14.39
2017-03-20T04:50:35.167Z,14.2
2017-03-20T04:51:15.683Z,14.39
2017-03-20T04:51:56.225Z,14.01
2017-03-20T04:52:36.722Z,14.2
2017-03-20T04:53:17.198Z,14.01
2017-03-20T04:53:57.715Z,14.2
2017-03-20T04:54:38.223Z,14.01
2017-03-20T04:55:18.743Z,14.01
2017-03-20T04:55:59.272Z,14.48
2017-03-20T04:56:39.809Z,14.01
2017-03-20T04:57:20.330Z,14.2
2017-03-20T04:58:00.852Z,14.29
2017-03-20T04:58:41.387Z,14.29
2017-03-20T04:59:21.905Z,14.39
2017-03-20T05:00:02.421Z,13.82
2017-03-20T05:00:42.942Z,13.72
2017-03-20T05:01:23.456Z,13.92
2017-03-20T05:02:03.971Z,14.11
2017-03-20T05:02:44.491Z,14.19
2017-03-20T05:03:25.005Z,14.29
2017-03-20T05:04:05.502Z,14.11
2017-03-20T05:04:46.024Z,14.01
2017-03-20T05:05:26.587Z,14.29
2017-03-20T05:06:07.113Z,14.29
2017-03-20T05:06:47.639Z,14.68
2017-03-20T05:07:28.153Z,14.48
2017-03-20T05:08:08.689Z,14.39
2017-03-20T05:08:49.224Z,14.77
2017-03-20T05:09:29.735Z,14.68
2017-03-20T05:10:10.247Z,14.58
2017-03-20T05:10:50.774Z,14.48
2017-03-20T05:11:31.302Z,14.68
2017-03-20T05:12:11.809Z,14.68
2017-03-20T05:12:52.329Z,14.77
2017-03-20T05:13:32.824Z,14.68
2017-03-20T05:14:13.338Z,14.87
2017-03-20T05:14:53.843Z,14.87
2017-03-20T05:15:34.360Z,14.77
2017-03-20T05:16:14.897Z,14.96
2017-03-20T05:16:55.412Z,15.06
2017-03-20T05:17:35.924Z,15.25
2017-03-20T05:18:16.465Z,15.34
2017-03-20T05:18:56.994Z,15.34
2017-03-20T05:19:37.495Z,15.16
2017-03-20T05:20:18.002Z,15.16
2017-03-20T05:20:58.506Z,15.16
2017-03-20T05:21:39.014Z,15.44
2017-03-20T05:22:19.518Z,15.16
2017-03-20T05:23:00.028Z,15.53
2017-03-20T05:23:40.559Z,15.16
2017-03-20T05:24:21.073Z,14.68
2017-03-20T05:25:01.602Z,14.48
2017-03-20T05:25:42.636Z,14.77
2017-03-20T05:26:23.171Z,14.77
2017-03-20T05:27:03.706Z,14.87
2017-03-20T05:27:44.219Z,14.87
2017-03-20T05:28:24.741Z,14.29
2017-03-20T05:29:05.251Z,14.29
2017-03-20T05:29:45.780Z,14.2
2017-03-20T05:30:26.300Z,13.34
2017-03-20T05:31:06.826Z,13.72
2017-03-20T05:31:47.347Z,14.01
2017-03-20T05:32:27.858Z,14.29
2017-03-20T05:33:08.363Z,14.29
2017-03-20T05:33:48.877Z,14.48
2017-03-20T05:34:29.396Z,14.58
2017-03-20T05:35:09.924Z,14.76
2017-03-20T05:35:50.471Z,14.86
2017-03-20T05:36:31.112Z,14.68
2017-03-20T05:37:11.633Z,15.06
2017-03-20T05:37:52.156Z,14.77
2017-03-20T05:38:32.681Z,14.87
2017-03-20T05:39:13.201Z,14.76
2017-03-20T05:39:53.705Z,15.24
2017-03-20T05:40:34.218Z,15.25
2017-03-20T05:41:14.748Z,15.16
2017-03-20T05:41:55.260Z,15.25
2017-03-20T05:42:35.795Z,15.34
2017-03-20T05:43:16.356Z,14.77
2017-03-20T05:43:56.891Z,14.11
2017-03-20T05:44:37.409Z,13.92
2017-03-20T05:45:17.917Z,14.39
2017-03-20T05:45:58.430Z,14.68
2017-03-20T05:46:38.954Z,14.77
2017-03-20T05:47:19.479Z,14.68
2017-03-20T05:48:00.025Z,14.48
2017-03-20T05:48:40.560Z,14.58
2017-03-20T05:49:21.084Z,14.58
2017-03-20T05:50:01.617Z,14.48
2017-03-20T05:50:42.132Z,14.48
2017-03-20T05:51:22.659Z,14.39
2017-03-20T05:52:03.199Z,14.29
2017-03-20T05:52:43.683Z,14.58
2017-03-20T05:53:24.180Z,14.48
2017-03-20T05:54:04.705Z,14.58
2017-03-20T05:54:45.244Z,14.58
2017-03-20T05:55:25.777Z,14.77
2017-03-20T05:56:06.310Z,14.87
2017-03-20T05:56:46.842Z,14.87
2017-03-20T05:57:27.384Z,15.25
2017-03-20T05:58:07.901Z,15.16
2017-03-20T05:58:48.421Z,15.25
2017-03-20T05:59:28.950Z,15.16
2017-03-20T06:00:09.488Z,15.06
2017-03-20T06:00:50.013Z,15.44
2017-03-20T06:01:30.533Z,15.34
2017-03-20T06:02:11.048Z,15.44
2017-03-20T06:02:51.595Z,15.34
2017-03-20T06:03:32.119Z,15.34
2017-03-20T06:04:12.638Z,15.34
2017-03-20T06:04:53.150Z,15.44
2017-03-20T06:05:33.676Z,15.34
2017-03-20T06:06:14.223Z,15.44
2017-03-20T06:06:54.721Z,15.53
2017-03-20T06:07:35.263Z,15.53
2017-03-20T06:08:15.798Z,15.63
2017-03-20T06:08:56.306Z,15.34
2017-03-20T06:09:36.815Z,15.25
2017-03-20T06:10:17.335Z,15.34
2017-03-20T06:10:57.850Z,14.87
2017-03-20T06:11:38.384Z,14.77
2017-03-20T06:12:18.911Z,14.48
2017-03-20T06:12:59.451Z,14.68
2017-03-20T06:13:39.992Z,14.58
2017-03-20T06:14:20.512Z,14.77
2017-03-20T06:15:01.037Z,14.39
2017-03-20T06:15:41.566Z,14.29
2017-03-20T06:16:22.089Z,14.48
2017-03-20T06:17:02.611Z,14.39
2017-03-20T06:17:43.121Z,14.29
2017-03-20T06:18:23.666Z,14.01
2017-03-20T06:19:04.201Z,14.29
2017-03-20T06:19:44.714Z,14.39
2017-03-20T06:20:25.239Z,14.39
2017-03-20T06:21:05.790Z,14.29
2017-03-20T06:21:46.320Z,14.29
2017-03-20T06:22:26.833Z,14.11
2017-03-20T06:23:07.343Z,14.11
2017-03-20T06:23:47.848Z,14.01
2017-03-20T06:24:28.348Z,14.01
2017-03-20T06:25:09.734Z,14.11
2017-03-20T06:25:50.241Z,14.11
2017-03-20T06:26:30.766Z,14.11
2017-03-20T06:27:11.266Z,14.01
2017-03-20T06:27:51.791Z,14.29
2017-03-20T06:28:32.313Z,14.29
2017-03-20T06:29:12.850Z,14.39
2017-03-20T06:29:53.383Z,14.39
2017-03-20T06:30:33.914Z,14.39
2017-03-20T06:31:14.428Z,14.29
2017-03-20T06:31:54.936Z,14.39
2017-03-20T06:32:35.447Z,14.48
2017-03-20T06:33:15.976Z,14.29
2017-03-20T06:33:56.523Z,14.39
2017-03-20T06:34:37.046Z,14.11
2017-03-20T06:35:17.566Z,14.29
2017-03-20T06:35:58.091Z,14.39
2017-03-20T06:36:38.615Z,14.29
2017-03-20T06:37:19.132Z,14.29
2017-03-20T06:37:59.675Z,14.48
2017-03-20T06:38:40.192Z,14.48
2017-03-20T06:39:20.735Z,14.48
2017-03-20T06:40:01.268Z,14.39
2017-03-20T06:40:41.768Z,14.2
2017-03-20T06:41:22.331Z,14.01
2017-03-20T06:42:02.836Z,14.2
2017-03-20T06:42:43.350Z,14.2
2017-03-20T06:43:23.869Z,14.48
2017-03-20T06:44:04.368Z,14.29
2017-03-20T06:44:44.894Z,14.29
2017-03-20T06:45:25.437Z,14.39
2017-03-20T06:46:06.197Z,14.11
2017-03-20T06:46:46.811Z,13.72
2017-03-20T06:47:27.318Z,13.82
2017-03-20T06:48:07.837Z,13.82
2017-03-20T06:48:48.364Z,13.72
2017-03-20T06:49:28.882Z,13.63
2017-03-20T06:50:09.421Z,13.72
2017-03-20T06:50:49.905Z,13.53
2017-03-20T06:51:30.414Z,13.63
2017-03-20T06:52:10.919Z,13.63
2017-03-20T06:52:51.415Z,13.82
2017-03-20T06:53:31.951Z,13.44
2017-03-20T06:54:12.448Z,13.44
2017-03-20T06:54:52.965Z,13.34
2017-03-20T06:55:33.485Z,12.29
2017-03-20T06:56:13.992Z,12.2
2017-03-20T06:56:54.491Z,11.34
2017-03-20T06:57:35.000Z,10.68
2017-03-20T06:58:15.504Z,10.96
2017-03-20T06:58:56.029Z,11.34
2017-03-20T06:59:36.532Z,11.53
2017-03-20T07:00:17.049Z,11.15
2017-03-20T07:00:57.581Z,10.96
2017-03-20T07:01:38.086Z,10.86
2017-03-20T07:02:18.596Z,10.86
2017-03-20T07:02:59.106Z,11.34
2017-03-20T07:03:39.635Z,11.44
2017-03-20T07:04:20.142Z,11.44
2017-03-20T07:05:00.683Z,11.44
2017-03-20T07:05:41.200Z,11.24
2017-03-20T07:06:21.729Z,11.24
2017-03-20T07:07:02.251Z,11.34
2017-03-20T07:07:42.815Z,11.54
2017-03-20T07:08:23.328Z,11.72
2017-03-20T07:09:03.829Z,11.53
2017-03-20T07:09:44.344Z,11.53
2017-03-20T07:10:24.843Z,11.63
2017-03-20T07:11:05.351Z,11.63
2017-03-20T07:11:45.859Z,11.15
2017-03-20T07:12:26.365Z,10.77
2017-03-20T07:13:06.910Z,10.86
2017-03-20T07:13:47.453Z,11.15
2017-03-20T07:14:27.944Z,11.34
2017-03-20T07:15:08.470Z,11.53
2017-03-20T07:15:49.033Z,11.05
2017-03-20T07:16:29.544Z,10.58
2017-03-20T07:17:10.060Z,10.48
2017-03-20T07:17:50.575Z,10.77
2017-03-20T07:18:31.088Z,10.86
2017-03-20T07:19:11.594Z,11.24
2017-03-20T07:19:52.084Z,11.35
2017-03-20T07:20:32.583Z,11.06
2017-03-20T07:21:13.088Z,10.68
2017-03-20T07:21:53.613Z,10.39
2017-03-20T07:22:34.143Z,10.49
2017-03-20T07:23:14.665Z,10.49
2017-03-20T07:23:55.183Z,10.77
2017-03-20T07:24:35.700Z,10.68
2017-03-20T07:25:16.241Z,10.87
2017-03-20T07:25:56.740Z,10.68
2017-03-20T07:26:37.257Z,10.68
2017-03-20T07:27:17.791Z,10.77
2017-03-20T07:27:58.301Z,10.58
2017-03-20T07:28:38.815Z,10.96
2017-03-20T07:29:19.349Z,10.49
2017-03-20T07:29:59.893Z,10.87
2017-03-20T07:30:40.382Z,10.68
2017-03-20T07:31:20.938Z,10.49
2017-03-20T07:32:01.452Z,10.68
2017-03-20T07:32:41.975Z,11.06
2017-03-20T07:33:22.501Z,10.68
2017-03-20T07:34:03.019Z,10.68
2017-03-20T07:34:43.543Z,11.16
2017-03-20T07:35:24.059Z,10.87
2017-03-20T07:36:04.571Z,11.06
2017-03-20T07:36:45.095Z,10.96
2017-03-20T07:37:25.599Z,10.58
2017-03-20T07:38:06.105Z,10.68
2017-03-20T07:38:46.661Z,10.58
2017-03-20T07:39:27.184Z,10.39
2017-03-20T07:40:07.707Z,10.3
2017-03-20T07:40:48.235Z,10.2
2017-03-20T07:41:28.751Z,10.11
2017-03-20T07:42:09.262Z,10.39
2017-03-20T07:42:49.790Z,10.3
2017-03-20T07:43:30.975Z,10.58
2017-03-20T07:44:11.530Z,9.44
2017-03-20T07:44:52.030Z,9.44
2017-03-20T07:45:32.561Z,9.53
2017-03-20T07:46:13.067Z,9.53
2017-03-20T07:46:53.579Z,9.53
2017-03-20T07:47:34.076Z,9.25
2017-03-20T07:48:14.581Z,8.96
2017-03-20T07:48:55.106Z,8.77
2017-03-20T07:49:35.621Z,8.96
2017-03-20T07:50:16.156Z,8.77
2017-03-20T07:50:56.675Z,8.96
2017-03-20T07:51:37.229Z,8.77
2017-03-20T07:52:17.735Z,8.58
2017-03-20T07:52:58.238Z,8.77
2017-03-20T07:53:38.784Z,8.96
2017-03-20T07:54:19.303Z,8.87
2017-03-20T07:54:59.806Z,9.16
2017-03-20T07:55:40.330Z,8.87
2017-03-20T07:56:20.844Z,8.87
2017-03-20T07:57:01.363Z,8.97
2017-03-20T07:57:41.952Z,8.97
2017-03-20T07:58:22.458Z,8.97
2017-03-20T07:59:02.982Z,8.97
2017-03-20T07:59:43.505Z,8.97
2017-03-20T08:00:24.004Z,8.97
2017-03-20T08:01:04.522Z,8.97
2017-03-20T08:01:45.061Z,9.06
2017-03-20T08:02:25.588Z,8.97
2017-03-20T08:03:06.088Z,8.87
2017-03-20T08:03:46.619Z,8.87
2017-03-20T08:04:27.120Z,8.97
2017-03-20T08:05:07.629Z,8.97
2017-03-20T08:05:48.160Z,8.68
2017-03-20T08:06:28.664Z,8.87
2017-03-20T08:07:09.216Z,8.78
2017-03-20T08:07:49.709Z,8.68
2017-03-20T08:08:30.231Z,9.06
2017-03-20T08:09:10.757Z,8.97
2017-03-20T08:09:51.254Z,8.78
2017-03-20T08:10:31.782Z,8.87
2017-03-20T08:11:12.306Z,8.97
2017-03-20T08:11:52.827Z,8.87
2017-03-20T08:12:33.370Z,8.87
2017-03-20T08:13:13.886Z,8.58
2017-03-20T08:13:54.425Z,8.49
2017-03-20T08:14:34.928Z,8.58
2017-03-20T08:15:15.453Z,8.78
2017-03-20T08:15:55.982Z,8.58
2017-03-20T08:16:36.511Z,8.2
2017-03-20T08:17:17.030Z,8.49
2017-03-20T08:17:57.526Z,8.11
2017-03-20T08:18:38.070Z,8.11
2017-03-20T08:19:18.584Z,8.39
2017-03-20T08:19:59.105Z,8.11
2017-03-20T08:20:39.629Z,8.2
2017-03-20T08:21:20.196Z,8.3
2017-03-20T08:22:00.703Z,8.39
2017-03-20T08:22:41.205Z,8.11
2017-03-20T08:23:21.711Z,8.01
2017-03-20T08:24:02.247Z,8.01
2017-03-20T08:24:42.758Z,8.2
2017-03-20T08:25:23.277Z,7.92
2017-03-20T08:26:03.800Z,8.58
2017-03-20T08:26:44.331Z,11.64
2017-03-20T08:27:24.883Z,9.16
2017-03-20T08:28:05.410Z,8.58
2017-03-20T08:28:45.914Z,8.2
2017-03-20T08:29:26.411Z,8.2
2017-03-20T08:30:06.913Z,9.92
2017-03-20T08:30:47.438Z,7.92
2017-03-20T08:31:27.959Z,9.06
2017-03-20T08:32:08.488Z,8.01
2017-03-20T08:32:48.981Z,8.11
2017-03-20T08:33:29.543Z,8.3
2017-03-20T08:34:10.077Z,8.01
2017-03-20T08:34:50.613Z,8.11
2017-03-20T08:35:31.127Z,9.35
2017-03-20T08:36:11.641Z,8.3
2017-03-20T08:36:52.159Z,7.92
2017-03-20T08:37:32.680Z,7.53
2017-03-20T08:38:13.180Z,8.11
2017-03-20T08:38:53.689Z,8.97
2017-03-20T08:39:34.225Z,7.53
2017-03-20T08:40:14.741Z,7.44
2017-03-20T08:40:55.263Z,7.82
2017-03-20T08:41:35.804Z,7.44
2017-03-20T08:42:16.316Z,7.73
2017-03-20T08:42:56.837Z,7.53
2017-03-20T08:43:37.369Z,8.78
2017-03-20T08:44:17.890Z,7.44